createdAt,value
2018-03-14T00:01:08.614Z,4.49
2018-03-14T00:03:37.731Z,4.53
2018-03-14T00:06:06.774Z,4.51
2018-03-14T00:08:37.511Z,4.48
2018-03-14T00:11:07.544Z,4.43
2018-03-14T00:13:38.080Z,4.47
2018-03-14T00:16:07.165Z,4.48
2018-03-14T00:18:35.528Z,4.44
2018-03-14T00:21:04.315Z,4.48
2018-03-14T00:23:32.687Z,4.47
2018-03-14T00:26:02.520Z,4.55
2018-03-14T00:28:32.099Z,4.70
2018-03-14T00:31:01.651Z,4.56
2018-03-14T00:33:30.815Z,4.52
2018-03-14T00:35:59.941Z,4.59
2018-03-14T00:38:28.439Z,4.73
2018-03-14T00:40:57.525Z,4.66
2018-03-14T00:43:27.128Z,4.75
2018-03-14T00:45:55.789Z,4.73
2018-03-14T00:48:26.303Z,4.71
2018-03-14T00:50:55.582Z,4.81
2018-03-14T00:53:24.261Z,4.78
2018-03-14T00:55:53.125Z,4.65
2018-03-14T00:58:22.898Z,4.73
2018-03-14T01:00:53.964Z,4.72
2018-03-14T01:03:22.425Z,4.91
2018-03-14T01:05:52.353Z,4.87
2018-03-14T01:08:21.772Z,4.77
2018-03-14T01:10:51.925Z,4.81
2018-03-14T01:13:20.864Z,4.81
2018-03-14T01:15:51.390Z,4.85
2018-03-14T01:18:20.690Z,4.85
2018-03-14T01:20:50.082Z,4.84
2018-03-14T01:23:20.178Z,4.77
2018-03-14T01:25:49.339Z,4.72
2018-03-14T01:28:20.022Z,4.73
2018-03-14T01:30:48.370Z,4.78
2018-03-14T01:33:16.796Z,4.69
2018-03-14T01:35:45.915Z,4.83
2018-03-14T01:38:15.921Z,4.70
2018-03-14T01:40:45.136Z,4.70
2018-03-14T01:43:14.983Z,4.69
2018-03-14T01:45:44.589Z,4.64
2018-03-14T01:48:14.356Z,4.65
2018-03-14T01:50:42.699Z,4.63
2018-03-14T01:53:22.847Z,4.58
2018-03-14T01:55:52.093Z,4.44
2018-03-14T01:58:20.872Z,4.55
2018-03-14T02:00:50.623Z,4.55
2018-03-14T02:03:19.390Z,4.65
2018-03-14T02:05:47.916Z,4.59
2018-03-14T02:08:18.284Z,4.67
2018-03-14T02:10:46.683Z,4.66
2018-03-14T02:13:17.787Z,4.63
2018-03-14T02:15:47.057Z,4.48
2018-03-14T02:18:16.345Z,4.57
2018-03-14T02:20:44.792Z,4.65
2018-03-14T02:23:15.866Z,4.61
2018-03-14T02:25:45.713Z,4.73
2018-03-14T02:28:14.924Z,4.74
2018-03-14T02:30:44.916Z,4.66
2018-03-14T02:33:13.903Z,4.74
2018-03-14T02:35:43.365Z,4.73
2018-03-14T02:38:13.697Z,4.80
2018-03-14T02:40:42.637Z,4.80
2018-03-14T02:43:11.644Z,4.87
2018-03-14T02:45:40.844Z,4.83
2018-03-14T02:48:09.996Z,4.81
2018-03-14T02:50:39.507Z,4.81
2018-03-14T02:53:09.162Z,4.86
2018-03-14T02:55:38.375Z,4.79
2018-03-14T02:58:09.687Z,4.68
2018-03-14T03:00:38.393Z,4.81
2018-03-14T03:03:08.025Z,4.72
2018-03-14T03:05:36.795Z,4.74
2018-03-14T03:08:05.143Z,4.70
2018-03-14T03:10:33.483Z,4.66
2018-03-14T03:13:01.905Z,4.68
2018-03-14T03:15:30.469Z,4.52
2018-03-14T03:18:01.297Z,4.56
2018-03-14T03:20:30.533Z,4.50
2018-03-14T03:22:59.975Z,4.50
2018-03-14T03:25:28.694Z,4.36
2018-03-14T03:27:57.343Z,4.30
2018-03-14T03:30:26.529Z,4.30
2018-03-14T03:32:54.877Z,4.25
2018-03-14T03:35:23.308Z,4.27
2018-03-14T03:37:52.157Z,4.22
2018-03-14T03:40:22.437Z,4.16
2018-03-14T03:42:51.519Z,4.17
2018-03-14T03:45:19.891Z,4.19
2018-03-14T03:47:49.435Z,4.24
2018-03-14T03:50:17.827Z,4.28
2018-03-14T03:52:47.396Z,4.21
2018-03-14T03:55:16.780Z,4.18
2018-03-14T03:57:46.829Z,4.20
2018-03-14T04:00:17.511Z,4.17
2018-03-14T04:02:47.082Z,4.22
2018-03-14T04:05:16.794Z,4.21
2018-03-14T04:07:45.170Z,4.21
2018-03-14T04:10:14.132Z,4.30
2018-03-14T04:12:43.854Z,4.27
2018-03-14T04:15:12.238Z,4.17
2018-03-14T04:17:41.606Z,4.19
2018-03-14T04:20:10.924Z,4.15
2018-03-14T04:22:39.294Z,4.19
2018-03-14T04:25:10.065Z,4.21
2018-03-14T04:27:39.099Z,4.27
2018-03-14T04:30:08.791Z,4.17
2018-03-14T04:32:38.848Z,4.13
2018-03-14T04:35:09.402Z,4.09
2018-03-14T04:37:37.780Z,4.10
2018-03-14T04:40:07.340Z,4.17
2018-03-14T04:42:35.676Z,4.13
2018-03-14T04:45:04.759Z,4.18
2018-03-14T04:47:33.251Z,4.09
2018-03-14T04:50:02.575Z,4.19
2018-03-14T04:52:32.381Z,4.13
2018-03-14T04:55:02.209Z,4.26
2018-03-14T04:57:30.605Z,4.20
2018-03-14T04:59:59.044Z,4.15
2018-03-14T05:02:29.292Z,4.07
2018-03-14T05:04:58.464Z,4.16
2018-03-14T05:07:28.585Z,4.16
2018-03-14T05:09:57.924Z,4.35
2018-03-14T05:12:28.867Z,4.33
2018-03-14T05:14:57.205Z,4.35
2018-03-14T05:17:25.556Z,4.32
2018-03-14T05:19:54.137Z,4.19
2018-03-14T05:22:24.415Z,4.18
2018-03-14T05:24:52.749Z,4.33
2018-03-14T05:27:21.889Z,4.43
2018-03-14T05:29:52.182Z,4.51
2018-03-14T05:32:21.898Z,4.26
2018-03-14T05:34:52.422Z,4.31
2018-03-14T05:37:22.611Z,4.28
2018-03-14T05:39:52.658Z,4.48
2018-03-14T05:42:22.531Z,4.29
2018-03-14T05:44:51.708Z,4.27
2018-03-14T05:47:23.377Z,4.45
2018-03-14T05:49:51.740Z,4.61
2018-03-14T05:52:20.123Z,4.66
2018-03-14T05:54:49.379Z,4.67
2018-03-14T05:57:19.363Z,4.64
2018-03-14T05:59:49.495Z,4.66
2018-03-14T06:02:17.930Z,4.72
2018-03-14T06:04:46.887Z,4.86
2018-03-14T06:07:16.207Z,4.94
2018-03-14T06:09:45.080Z,4.94
2018-03-14T06:12:13.789Z,5.03
2018-03-14T06:14:42.158Z,5.02
2018-03-14T06:17:10.548Z,5.13
2018-03-14T06:19:41.147Z,5.22
2018-03-14T06:22:10.095Z,5.18
2018-03-14T06:24:40.079Z,5.17
2018-03-14T06:27:08.450Z,5.13
2018-03-14T06:29:38.586Z,5.15
2018-03-14T06:32:07.050Z,5.17
2018-03-14T06:34:35.451Z,5.12
2018-03-14T06:37:05.741Z,5.05
2018-03-14T06:39:34.937Z,5.08
2018-03-14T06:42:04.201Z,5.11
2018-03-14T06:44:34.313Z,5.12
2018-03-14T06:47:02.691Z,5.14
2018-03-14T06:49:32.530Z,5.25
2018-03-14T06:52:01.860Z,5.27
2018-03-14T06:54:31.077Z,5.30
2018-03-14T06:57:02.504Z,5.28
2018-03-14T07:03:04.124Z,5.32
2018-03-14T07:05:46.179Z,5.41
2018-03-14T07:08:15.457Z,5.31
2018-03-14T07:10:44.098Z,5.38
2018-03-14T07:13:14.119Z,5.40
2018-03-14T07:15:43.527Z,5.44
2018-03-14T07:18:12.652Z,5.45
2018-03-14T07:20:41.830Z,5.48
2018-03-14T07:23:11.120Z,5.48
2018-03-14T07:25:40.070Z,5.50
2018-03-14T07:28:08.488Z,5.51
2018-03-14T07:30:38.112Z,5.53
2018-03-14T07:33:08.297Z,5.63
2018-03-14T07:35:36.919Z,5.69
2018-03-14T07:38:06.787Z,5.69
2018-03-14T07:40:35.364Z,5.72
2018-03-14T07:43:04.939Z,5.69
2018-03-14T07:45:34.935Z,5.68
2018-03-14T07:48:03.884Z,5.71
2018-03-14T07:50:33.162Z,5.69
2018-03-14T07:53:02.344Z,5.72
2018-03-14T07:55:31.004Z,5.71
2018-03-14T07:57:59.403Z,5.69
2018-03-14T08:00:28.940Z,5.69
2018-03-14T08:02:57.292Z,5.74
2018-03-14T08:05:26.930Z,5.72
2018-03-14T08:07:56.399Z,5.69
2018-03-14T08:10:25.665Z,5.66
2018-03-14T08:12:57.213Z,5.61
2018-03-14T08:15:26.386Z,5.72
2018-03-14T08:17:55.585Z,5.53
2018-03-14T08:20:24.694Z,5.67
2018-03-14T08:22:57.855Z,5.68
2018-03-14T08:25:26.719Z,5.42
2018-03-14T08:27:56.513Z,5.52
2018-03-14T08:30:25.027Z,5.74
2018-03-14T08:32:55.850Z,5.87
2018-03-14T08:35:24.199Z,5.86
2018-03-14T08:37:53.233Z,5.64
2018-03-14T08:40:23.252Z,5.78
2018-03-14T08:42:53.471Z,5.72
2018-03-14T08:45:23.692Z,5.62
2018-03-14T08:47:52.023Z,5.69
2018-03-14T08:50:22.175Z,5.91
2018-03-14T08:52:51.501Z,5.81
2018-03-14T08:55:20.719Z,5.93
2018-03-14T08:57:50.348Z,6.05
2018-03-14T09:00:19.517Z,6.08
2018-03-14T09:02:47.858Z,6.12
2018-03-14T09:05:17.070Z,6.12
2018-03-14T09:07:48.571Z,6.29
2018-03-14T09:10:17.546Z,6.30
2018-03-14T09:12:45.947Z,6.32
2018-03-14T09:15:14.683Z,5.90
2018-03-14T09:17:43.024Z,6.12
2018-03-14T09:20:11.771Z,6.35
2018-03-14T09:22:41.357Z,6.33
2018-03-14T09:25:09.754Z,6.19
2018-03-14T09:27:39.596Z,6.35
2018-03-14T09:30:08.466Z,6.44
2018-03-14T09:32:39.457Z,6.15
2018-03-14T09:35:08.080Z,6.35
2018-03-14T09:37:39.406Z,6.48
2018-03-14T09:40:10.534Z,6.30
2018-03-14T09:42:39.222Z,6.06
2018-03-14T09:45:07.892Z,6.30
2018-03-14T09:47:36.943Z,6.22
2018-03-14T09:50:06.776Z,6.52
2018-03-14T09:52:36.899Z,6.58
2018-03-14T09:55:05.533Z,6.40
2018-03-14T09:57:35.524Z,6.13
2018-03-14T10:00:05.834Z,6.30
2018-03-14T10:02:34.239Z,6.49
2018-03-14T10:05:03.499Z,6.55
2018-03-14T10:07:33.883Z,6.46
2018-03-14T10:10:03.724Z,6.43
2018-03-14T10:12:32.119Z,6.34
2018-03-14T10:15:00.841Z,6.53
2018-03-14T10:17:29.884Z,6.70
2018-03-14T10:19:59.615Z,6.83
2018-03-14T10:22:28.313Z,6.89
2018-03-14T10:24:59.003Z,6.91
2018-03-14T10:27:28.187Z,6.93
2018-03-14T10:29:56.614Z,7.12
2018-03-14T10:32:26.629Z,7.12
2018-03-14T10:34:55.761Z,7.03
2018-03-14T10:37:24.440Z,7.21
2018-03-14T10:39:54.647Z,6.90
2018-03-14T10:42:24.729Z,6.99
2018-03-14T10:44:53.473Z,7.02
2018-03-14T10:47:21.866Z,7.21
2018-03-14T10:49:51.985Z,6.89
2018-03-14T10:52:22.812Z,7.07
2018-03-14T10:54:52.126Z,7.26
2018-03-14T10:57:21.468Z,7.38
2018-03-14T10:59:51.557Z,7.37
2018-03-14T11:02:22.997Z,7.55
2018-03-14T11:04:53.118Z,7.37
2018-03-14T11:07:22.208Z,7.70
2018-03-14T11:09:51.291Z,7.70
2018-03-14T11:12:20.350Z,7.87
2018-03-14T11:14:50.611Z,7.95
2018-03-14T11:17:19.849Z,8.04
2018-03-14T11:19:48.936Z,8.14
2018-03-14T11:22:17.841Z,8.33
2018-03-14T11:24:47.624Z,8.38
2018-03-14T11:27:16.791Z,8.25
2018-03-14T11:29:46.494Z,7.97
2018-03-14T11:32:14.913Z,7.80
2018-03-14T11:34:44.435Z,8.25
2018-03-14T11:37:13.146Z,8.21
2018-03-14T11:39:43.061Z,7.68
2018-03-14T11:42:11.511Z,7.94
2018-03-14T11:44:41.106Z,7.81
2018-03-14T11:47:18.365Z,7.78
2018-03-14T11:49:47.671Z,7.88
2018-03-14T11:52:16.332Z,7.63
2018-03-14T11:54:45.866Z,7.64
2018-03-14T11:57:16.791Z,7.52
2018-03-14T11:59:45.629Z,7.85
2018-03-14T12:02:13.976Z,7.83
2018-03-14T12:04:44.439Z,8.06
2018-03-14T12:07:13.190Z,8.06
2018-03-14T12:09:43.001Z,8.32
2018-03-14T12:12:11.616Z,8.62
2018-03-14T12:14:41.571Z,8.54
2018-03-14T12:17:10.571Z,8.79
2018-03-14T12:19:39.040Z,8.41
2018-03-14T12:22:13.347Z,8.21
2018-03-14T12:24:42.660Z,8.41
2018-03-14T12:27:11.994Z,8.80
2018-03-14T12:29:41.296Z,9.03
2018-03-14T12:32:11.027Z,9.29
2018-03-14T12:34:43.038Z,9.32
2018-03-14T12:37:12.239Z,9.57
2018-03-14T12:39:41.864Z,9.56
2018-03-14T12:42:11.221Z,9.61
2018-03-14T12:44:41.159Z,9.70
2018-03-14T12:47:10.006Z,10.03
2018-03-14T12:49:38.557Z,10.13
2018-03-14T12:52:07.247Z,10.31
2018-03-14T12:54:36.303Z,10.35
2018-03-14T12:57:04.662Z,10.45
2018-03-14T12:59:33.217Z,10.60
2018-03-14T13:02:02.442Z,10.67
2018-03-14T13:04:30.986Z,10.59
2018-03-14T13:07:01.087Z,10.56
2018-03-14T13:09:29.462Z,10.50
2018-03-14T13:11:57.892Z,10.74
2018-03-14T13:14:26.224Z,10.90
2018-03-14T13:16:56.035Z,10.63
2018-03-14T13:19:24.956Z,11.34
2018-03-14T13:21:53.318Z,11.61
2018-03-14T13:24:23.570Z,12.37
2018-03-14T13:26:53.117Z,12.57
2018-03-14T13:29:22.743Z,11.96
2018-03-14T13:31:51.305Z,12.25
2018-03-14T13:34:19.725Z,12.29
2018-03-14T13:36:48.151Z,12.12
2018-03-14T13:39:16.630Z,11.34
2018-03-14T13:41:45.760Z,11.46
2018-03-14T13:44:14.961Z,11.46
2018-03-14T13:46:43.342Z,11.56
2018-03-14T13:49:12.594Z,12.38
2018-03-14T13:51:41.016Z,13.03
2018-03-14T13:54:10.144Z,12.51
2018-03-14T13:56:39.522Z,12.58
2018-03-14T13:59:08.166Z,12.56
2018-03-14T14:01:38.119Z,12.80
2018-03-14T14:04:07.307Z,12.63
2018-03-14T14:06:36.435Z,12.73
2018-03-14T14:09:05.775Z,12.87
2018-03-14T14:11:34.994Z,12.54
2018-03-14T14:14:03.459Z,12.57
2018-03-14T14:16:32.779Z,12.51
2018-03-14T14:19:02.803Z,12.58
2018-03-14T14:21:32.721Z,12.47
2018-03-14T14:24:01.161Z,12.34
2018-03-14T14:26:30.172Z,12.40
2018-03-14T14:29:00.363Z,12.54
2018-03-14T14:31:28.713Z,13.18
2018-03-14T14:33:57.065Z,13.66
2018-03-14T14:36:28.430Z,13.34
2018-03-14T14:38:56.836Z,13.35
2018-03-14T14:41:25.255Z,14.27
2018-03-14T14:43:54.525Z,14.36
2018-03-14T14:46:24.311Z,14.07
2018-03-14T14:48:55.114Z,14.65
2018-03-14T14:51:23.795Z,15.08
2018-03-14T14:53:53.977Z,15.44
2018-03-14T14:56:22.396Z,15.40
2018-03-14T14:58:52.740Z,14.88
2018-03-14T15:01:21.176Z,15.09
2018-03-14T15:03:51.110Z,15.27
2018-03-14T15:06:20.238Z,15.53
2018-03-14T15:08:49.131Z,15.44
2018-03-14T15:11:18.403Z,15.28
2018-03-14T15:13:49.541Z,15.04
2018-03-14T15:16:19.266Z,14.20
2018-03-14T15:18:48.284Z,13.77
2018-03-14T15:21:18.530Z,13.41
2018-03-14T15:23:47.623Z,12.95
2018-03-14T15:26:16.026Z,12.98
2018-03-14T15:28:45.163Z,13.12
2018-03-14T15:31:13.622Z,13.01
2018-03-14T15:33:42.370Z,13.18
2018-03-14T15:36:10.714Z,13.77
2018-03-14T15:38:42.188Z,14.44
2018-03-14T15:41:13.384Z,14.11
2018-03-14T15:43:42.106Z,13.62
2018-03-14T15:46:10.528Z,12.86
2018-03-14T15:48:43.194Z,12.63
2018-03-14T15:51:14.109Z,12.51
2018-03-14T15:53:44.175Z,12.57
2018-03-14T15:56:13.045Z,12.39
2018-03-14T15:58:44.660Z,12.80
2018-03-14T16:01:13.275Z,12.97
2018-03-14T16:03:45.368Z,13.52
2018-03-14T16:06:15.055Z,14.46
2018-03-14T16:08:43.419Z,14.65
2018-03-14T16:11:12.901Z,15.56
2018-03-14T16:13:41.262Z,15.39
2018-03-14T16:16:11.988Z,15.70
2018-03-14T16:18:40.923Z,15.24
2018-03-14T16:21:11.624Z,14.96
2018-03-14T16:23:40.487Z,14.72
2018-03-14T16:26:09.690Z,13.99
2018-03-14T16:28:39.609Z,13.75
2018-03-14T16:31:08.793Z,13.34
2018-03-14T16:33:38.297Z,13.17
2018-03-14T16:36:07.589Z,14.30
2018-03-14T16:38:36.063Z,14.74
2018-03-14T16:41:05.830Z,14.56
2018-03-14T16:43:35.682Z,15.17
2018-03-14T16:46:04.034Z,14.73
2018-03-14T16:48:33.242Z,14.98
2018-03-14T16:51:03.248Z,15.18
2018-03-14T16:53:31.659Z,14.42
2018-03-14T16:56:00.676Z,13.96
2018-03-14T16:58:30.746Z,13.82
2018-03-14T17:00:59.135Z,13.92
2018-03-14T17:03:28.997Z,13.78
2018-03-14T17:05:57.868Z,13.64
2018-03-14T17:08:29.650Z,13.02
2018-03-14T17:11:00.219Z,12.50
2018-03-14T17:13:29.325Z,12.07
2018-03-14T17:15:58.559Z,11.70
2018-03-14T17:18:27.188Z,11.23
2018-03-14T17:20:56.262Z,11.03
2018-03-14T17:23:24.666Z,10.72
2018-03-14T17:25:53.172Z,10.55
2018-03-14T17:28:21.596Z,10.47
2018-03-14T17:30:51.750Z,10.16
2018-03-14T17:33:20.987Z,10.09
2018-03-14T17:35:50.408Z,9.77
2018-03-14T17:38:20.250Z,9.75
2018-03-14T17:40:50.221Z,9.54
2018-03-14T17:43:19.467Z,9.52
2018-03-14T17:45:47.873Z,9.38
2018-03-14T17:48:18.836Z,9.30
2018-03-14T17:50:49.163Z,9.26
2018-03-14T17:53:17.614Z,9.11
2018-03-14T17:55:46.399Z,9.04
2018-03-14T17:58:16.746Z,8.91
2018-03-14T18:00:46.079Z,8.82
2018-03-14T18:03:16.976Z,8.81
2018-03-14T18:05:46.164Z,8.72
2018-03-14T18:08:15.096Z,8.67
2018-03-14T18:10:44.559Z,8.54
2018-03-14T18:13:14.095Z,8.49
2018-03-14T18:15:44.407Z,8.43
2018-03-14T18:18:14.244Z,8.40
2018-03-14T18:20:43.785Z,8.32
2018-03-14T18:23:12.210Z,8.12
2018-03-14T18:25:41.316Z,8.23
2018-03-14T18:28:10.344Z,7.97
2018-03-14T18:30:38.688Z,7.93
2018-03-14T18:33:07.686Z,7.91
2018-03-14T18:35:36.951Z,7.72
2018-03-14T18:38:08.879Z,7.44
2018-03-14T18:40:39.649Z,7.45
2018-03-14T18:43:11.255Z,7.52
2018-03-14T18:45:40.255Z,7.42
2018-03-14T18:48:09.356Z,7.26
2018-03-14T18:50:39.956Z,7.03
2018-03-14T18:53:11.144Z,6.86
2018-03-14T18:55:42.135Z,6.80
2018-03-14T18:58:11.064Z,6.80
2018-03-14T19:00:40.127Z,6.64
2018-03-14T19:03:10.425Z,6.59
2018-03-14T19:05:42.433Z,6.39
2018-03-14T19:08:11.680Z,6.37
2018-03-14T19:10:41.304Z,6.31
2018-03-14T19:13:11.352Z,6.33
2018-03-14T19:15:41.300Z,6.22
2018-03-14T19:18:09.651Z,6.15
2018-03-14T19:20:38.086Z,6.18
2018-03-14T19:23:07.031Z,6.14
2018-03-14T19:25:35.600Z,5.99
2018-03-14T19:28:05.362Z,5.99
2018-03-14T19:30:33.743Z,5.81
2018-03-14T19:33:02.891Z,5.88
2018-03-14T19:35:31.446Z,5.93
2018-03-14T19:38:00.664Z,5.96
2018-03-14T19:40:29.611Z,5.91
2018-03-14T19:42:58.981Z,5.72
2018-03-14T19:45:27.366Z,5.70
2018-03-14T19:47:57.389Z,5.68
2018-03-14T19:50:27.067Z,5.59
2018-03-14T19:52:55.797Z,5.49
2018-03-14T19:55:24.794Z,5.51
2018-03-14T19:57:53.501Z,5.66
2018-03-14T20:00:23.004Z,5.65
2018-03-14T20:02:54.920Z,5.59
2018-03-14T20:05:24.278Z,5.49
2018-03-14T20:07:52.620Z,5.44
2018-03-14T20:10:20.986Z,5.47
2018-03-14T20:12:51.293Z,5.43
2018-03-14T20:15:20.363Z,5.38
2018-03-14T20:17:48.733Z,5.33
2018-03-14T20:20:17.560Z,5.28
2018-03-14T20:22:46.769Z,5.26
2018-03-14T20:25:15.141Z,5.23
2018-03-14T20:27:44.234Z,5.29
2018-03-14T20:30:13.453Z,5.22
2018-03-14T20:32:41.873Z,5.10
2018-03-14T20:35:11.351Z,5.07
2018-03-14T20:37:40.493Z,4.90
2018-03-14T20:40:08.898Z,4.93
2018-03-14T20:42:37.294Z,4.83
2018-03-14T20:45:06.037Z,4.81
2018-03-14T20:47:36.110Z,4.78
2018-03-14T20:50:04.574Z,4.64
2018-03-14T20:52:33.587Z,4.69
2018-03-14T20:55:03.700Z,4.56
2018-03-14T20:57:32.200Z,4.50
2018-03-14T21:00:00.574Z,4.55
2018-03-14T21:02:31.033Z,4.53
2018-03-14T21:04:59.378Z,4.40
2018-03-14T21:07:27.766Z,4.36
2018-03-14T21:09:56.275Z,4.25
2018-03-14T21:12:25.787Z,4.25
2018-03-14T21:14:55.421Z,4.24
2018-03-14T21:17:23.760Z,4.14
2018-03-14T21:19:54.037Z,4.15
2018-03-14T21:22:22.435Z,4.16
2018-03-14T21:24:51.616Z,4.21
2018-03-14T21:27:20.796Z,4.11
2018-03-14T21:29:50.008Z,4.15
2018-03-14T21:32:18.798Z,4.20
2018-03-14T21:34:47.150Z,4.32
2018-03-14T21:37:16.795Z,4.31
2018-03-14T21:39:46.597Z,4.33
2018-03-14T21:42:15.878Z,4.28
2018-03-14T21:44:45.117Z,4.21
2018-03-14T21:47:16.522Z,4.12
2018-03-14T21:49:45.954Z,4.16
2018-03-14T21:52:14.308Z,4.18
2018-03-14T21:54:42.915Z,4.27
2018-03-14T21:57:19.554Z,4.27
2018-03-14T21:59:50.694Z,4.20
2018-03-14T22:02:19.093Z,4.32
2018-03-14T22:04:48.067Z,4.17
2018-03-14T22:07:16.471Z,4.17
2018-03-14T22:09:46.315Z,4.14
2018-03-14T22:12:21.838Z,3.92
2018-03-14T22:14:51.807Z,3.92
2018-03-14T22:17:22.363Z,3.88
2018-03-14T22:19:50.723Z,4.04
2018-03-14T22:22:20.473Z,3.93
2018-03-14T22:24:49.174Z,3.95
2018-03-14T22:27:18.817Z,3.85
2018-03-14T22:29:47.839Z,3.81
2018-03-14T22:32:16.394Z,3.76
2018-03-14T22:34:44.777Z,3.82
2018-03-14T22:37:14.048Z,3.70
2018-03-14T22:39:43.186Z,3.67
2018-03-14T22:42:11.988Z,3.73
2018-03-14T22:44:41.291Z,3.61
2018-03-14T22:47:10.478Z,3.60
2018-03-14T22:49:40.092Z,3.61
2018-03-14T22:52:08.460Z,3.77
2018-03-14T22:54:36.786Z,3.67
2018-03-14T22:57:05.378Z,3.55
2018-03-14T22:59:33.774Z,3.66
2018-03-14T23:02:02.201Z,3.66
2018-03-14T23:04:31.237Z,3.58
2018-03-14T23:07:00.063Z,3.55
2018-03-14T23:09:29.270Z,3.49
2018-03-14T23:11:57.670Z,3.44
2018-03-14T23:14:27.995Z,3.43
2018-03-14T23:16:56.307Z,3.41
2018-03-14T23:19:26.051Z,3.35
2018-03-14T23:21:56.299Z,3.36
2018-03-14T23:24:24.654Z,3.35
2018-03-14T23:26:53.027Z,3.30
2018-03-14T23:29:22.613Z,3.24
2018-03-14T23:31:54.106Z,3.40
2018-03-14T23:34:22.678Z,3.44
2018-03-14T23:36:51.055Z,3.38
2018-03-14T23:39:19.419Z,3.48
2018-03-14T23:41:47.797Z,3.42
2018-03-14T23:44:16.287Z,3.44
2018-03-14T23:46:44.617Z,3.45
2018-03-14T23:49:13.721Z,3.35
2018-03-14T23:51:42.341Z,3.36
2018-03-14T23:54:11.576Z,3.39
2018-03-14T23:56:40.381Z,3.42
2018-03-14T23:59:10.047Z,3.30
